sensor_id;sensor_type;location;lat;lon;timestamp;temperature;humidity
4209;DHT22;36320;48.860;2.380;2023-06-14T00:02:10;26.30;38.10
4209;DHT22;36320;48.860;2.380;2023-06-14T00:04:36;26.40;38.30
4209;DHT22;36320;48.860;2.380;2023-06-14T00:07:04;26.30;38.30
4209;DHT22;36320;48.860;2.380;2023-06-14T00:09:34;26.20;38.80
4209;DHT22;36320;48.860;2.380;2023-06-14T00:12:01;25.10;39.10
4209;DHT22;36320;48.860;2.380;2023-06-14T00:14:27;26.20;39.00
4209;DHT22;36320;48.860;2.380;2023-06-14T00:16:53;26.10;39.00
4209;DHT22;36320;48.860;2.380;2023-06-14T00:19:19;26.20;39.10
4209;DHT22;36320;48.860;2.380;2023-06-14T00:21:49;26.20;39.10
4209;DHT22;36320;48.860;2.380;2023-06-14T00:24:15;26.20;39.10
4209;DHT22;36320;48.860;2.380;2023-06-14T00:26:41;26.20;39.10
4209;DHT22;36320;48.860;2.380;2023-06-14T00:29:12;26.20;39.20
4209;DHT22;36320;48.860;2.380;2023-06-14T00:31:38;26.20;39.10
4209;DHT22;36320;48.860;2.380;2023-06-14T00:34:03;26.20;39.50
4209;DHT22;36320;48.860;2.380;2023-06-14T00:36:29;26.10;39.70
4209;DHT22;36320;48.860;2.380;2023-06-14T00:38:58;26.10;39.80
4209;DHT22;36320;48.860;2.380;2023-06-14T00:41:23;26.20;39.70
4209;DHT22;36320;48.860;2.380;2023-06-14T00:43:50;26.20;39.70
4209;DHT22;36320;48.860;2.380;2023-06-14T00:46:17;26.00;40.00
4209;DHT22;36320;48.860;2.380;2023-06-14T00:48:44;25.80;40.30
4209;DHT22;36320;48.860;2.380;2023-06-14T00:51:10;25.70;40.70
4209;DHT22;36320;48.860;2.380;2023-06-14T00:53:36;25.70;40.80
4209;DHT22;36320;48.860;2.380;2023-06-14T00:56:05;25.70;40.90
4209;DHT22;36320;48.860;2.380;2023-06-14T00:58:31;25.70;40.90
4209;DHT22;36320;48.860;2.380;2023-06-14T01:00:58;25.80;40.80
4209;DHT22;36320;48.860;2.380;2023-06-14T01:03:24;25.70;41.00
4209;DHT22;36320;48.860;2.380;2023-06-14T01:06:01;25.70;41.10
4209;DHT22;36320;48.860;2.380;2023-06-14T01:08:49;25.60;41.50
4209;DHT22;36320;48.860;2.380;2023-06-14T01:11:22;25.30;41.90
4209;DHT22;36320;48.860;2.380;2023-06-14T01:13:52;24.80;42.10
4209;DHT22;36320;48.860;2.380;2023-06-14T01:16:19;25.10;42.50
4209;DHT22;36320;48.860;2.380;2023-06-14T01:18:45;25.10;42.50
4209;DHT22;36320;48.860;2.380;2023-06-14T01:21:25;25.00;43.00
4209;DHT22;36320;48.860;2.380;2023-06-14T01:23:51;25.00;42.90
4209;DHT22;36320;48.860;2.380;2023-06-14T01:26:21;25.00;42.90
4209;DHT22;36320;48.860;2.380;2023-06-14T01:28:50;25.00;43.10
4209;DHT22;36320;48.860;2.380;2023-06-14T01:31:28;24.90;43.40
4209;DHT22;36320;48.860;2.380;2023-06-14T01:33:55;24.80;43.50
4209;DHT22;36320;48.860;2.380;2023-06-14T01:36:22;24.90;43.50
4209;DHT22;36320;48.860;2.380;2023-06-14T01:38:50;24.70;43.60
4209;DHT22;36320;48.860;2.380;2023-06-14T01:41:19;24.70;43.80
4209;DHT22;36320;48.860;2.380;2023-06-14T01:43:45;24.60;43.90
4209;DHT22;36320;48.860;2.380;2023-06-14T01:46:15;24.50;44.10
4209;DHT22;36320;48.860;2.380;2023-06-14T01:48:43;24.50;44.20
4209;DHT22;36320;48.860;2.380;2023-06-14T01:51:08;24.50;44.20
4209;DHT22;36320;48.860;2.380;2023-06-14T01:53:35;24.50;44.20
4209;DHT22;36320;48.860;2.380;2023-06-14T01:56:01;24.50;44.40
4209;DHT22;36320;48.860;2.380;2023-06-14T01:58:27;24.40;44.50
4209;DHT22;36320;48.860;2.380;2023-06-14T02:00:53;24.50;44.60
4209;DHT22;36320;48.860;2.380;2023-06-14T02:03:22;24.30;44.60
4209;DHT22;36320;48.860;2.380;2023-06-14T02:05:49;24.30;44.80
4209;DHT22;36320;48.860;2.380;2023-06-14T02:08:14;24.30;44.90
4209;DHT22;36320;48.860;2.380;2023-06-14T02:10:41;24.40;44.90
4209;DHT22;36320;48.860;2.380;2023-06-14T02:13:09;24.30;45.00
4209;DHT22;36320;48.860;2.380;2023-06-14T02:15:35;24.40;44.90
4209;DHT22;36320;48.860;2.380;2023-06-14T02:18:02;24.20;45.00
4209;DHT22;36320;48.860;2.380;2023-06-14T02:20:29;24.20;45.20
4209;DHT22;36320;48.860;2.380;2023-06-14T02:22:55;24.10;45.30
4209;DHT22;36320;48.860;2.380;2023-06-14T02:25:20;24.00;45.40
4209;DHT22;36320;48.860;2.380;2023-06-14T02:27:47;23.90;45.50
4209;DHT22;36320;48.860;2.380;2023-06-14T02:30:13;23.90;45.60
4209;DHT22;36320;48.860;2.380;2023-06-14T02:32:39;23.90;45.60
4209;DHT22;36320;48.860;2.380;2023-06-14T02:35:06;24.10;45.50
4209;DHT22;36320;48.860;2.380;2023-06-14T02:37:33;24.10;45.30
4209;DHT22;36320;48.860;2.380;2023-06-14T02:39:59;24.30;45.10
4209;DHT22;36320;48.860;2.380;2023-06-14T02:42:25;24.10;44.90
4209;DHT22;36320;48.860;2.380;2023-06-14T02:44:50;24.30;45.00
4209;DHT22;36320;48.860;2.380;2023-06-14T02:47:18;24.10;44.90
4209;DHT22;36320;48.860;2.380;2023-06-14T02:49:44;24.00;45.10
4209;DHT22;36320;48.860;2.380;2023-06-14T02:52:12;23.90;45.10
4209;DHT22;36320;48.860;2.380;2023-06-14T02:54:37;23.90;45.20
4209;DHT22;36320;48.860;2.380;2023-06-14T02:57:03;24.00;45.20
4209;DHT22;36320;48.860;2.380;2023-06-14T02:59:29;24.10;45.10
4209;DHT22;36320;48.860;2.380;2023-06-14T03:01:55;24.00;45.10
4209;DHT22;36320;48.860;2.380;2023-06-14T03:04:21;24.00;45.10
4209;DHT22;36320;48.860;2.380;2023-06-14T03:06:46;24.10;45.00
4209;DHT22;36320;48.860;2.380;2023-06-14T03:09:15;24.00;45.00
4209;DHT22;36320;48.860;2.380;2023-06-14T03:11:41;23.80;45.10
4209;DHT22;36320;48.860;2.380;2023-06-14T03:14:08;23.80;45.40
4209;DHT22;36320;48.860;2.380;2023-06-14T03:16:34;23.80;45.40
4209;DHT22;36320;48.860;2.380;2023-06-14T03:19:00;23.80;45.30
4209;DHT22;36320;48.860;2.380;2023-06-14T03:21:26;23.90;45.30
4209;DHT22;36320;48.860;2.380;2023-06-14T03:23:52;23.90;45.40
4209;DHT22;36320;48.860;2.380;2023-06-14T03:26:18;23.90;45.40
4209;DHT22;36320;48.860;2.380;2023-06-14T03:28:45;23.80;45.40
4209;DHT22;36320;48.860;2.380;2023-06-14T03:31:12;23.70;45.70
4209;DHT22;36320;48.860;2.380;2023-06-14T03:33:38;23.60;45.80
4209;DHT22;36320;48.860;2.380;2023-06-14T03:36:04;23.60;45.70
4209;DHT22;36320;48.860;2.380;2023-06-14T03:38:32;23.60;45.90
4209;DHT22;36320;48.860;2.380;2023-06-14T03:40:58;23.60;45.90
4209;DHT22;36320;48.860;2.380;2023-06-14T03:43:24;23.60;45.90
4209;DHT22;36320;48.860;2.380;2023-06-14T03:45:52;23.50;46.00
4209;DHT22;36320;48.860;2.380;2023-06-14T03:48:18;23.40;46.40
4209;DHT22;36320;48.860;2.380;2023-06-14T03:50:43;23.30;46.50
4209;DHT22;36320;48.860;2.380;2023-06-14T03:53:10;23.30;46.60
4209;DHT22;36320;48.860;2.380;2023-06-14T03:55:36;23.30;46.80
4209;DHT22;36320;48.860;2.380;2023-06-14T03:58:03;23.40;47.20
4209;DHT22;36320;48.860;2.380;2023-06-14T04:00:29;23.30;46.60
4209;DHT22;36320;48.860;2.380;2023-06-14T04:02:55;23.40;46.80
4209;DHT22;36320;48.860;2.380;2023-06-14T04:05:21;23.50;46.50
4209;DHT22;36320;48.860;2.380;2023-06-14T04:07:47;23.50;46.50
4209;DHT22;36320;48.860;2.380;2023-06-14T04:10:15;23.30;46.50
4209;DHT22;36320;48.860;2.380;2023-06-14T04:12:41;23.50;46.70
4209;DHT22;36320;48.860;2.380;2023-06-14T04:15:08;23.70;46.40
4209;DHT22;36320;48.860;2.380;2023-06-14T04:17:34;23.30;46.50
4209;DHT22;36320;48.860;2.380;2023-06-14T04:20:01;23.50;46.50
4209;DHT22;36320;48.860;2.380;2023-06-14T04:22:28;23.40;46.50
4209;DHT22;36320;48.860;2.380;2023-06-14T04:24:56;23.50;46.20
4209;DHT22;36320;48.860;2.380;2023-06-14T04:27:26;23.60;45.90
4209;DHT22;36320;48.860;2.380;2023-06-14T04:29:56;23.60;45.90
4209;DHT22;36320;48.860;2.380;2023-06-14T04:32:26;23.70;45.70
4209;DHT22;36320;48.860;2.380;2023-06-14T04:34:54;23.70;45.50
4209;DHT22;36320;48.860;2.380;2023-06-14T04:37:21;23.60;45.60
4209;DHT22;36320;48.860;2.380;2023-06-14T04:39:47;23.60;45.90
4209;DHT22;36320;48.860;2.380;2023-06-14T04:42:13;23.50;46.00
4209;DHT22;36320;48.860;2.380;2023-06-14T04:44:42;23.60;46.00
4209;DHT22;36320;48.860;2.380;2023-06-14T04:47:13;23.60;46.10
4209;DHT22;36320;48.860;2.380;2023-06-14T04:49:41;23.60;46.20
4209;DHT22;36320;48.860;2.380;2023-06-14T04:52:07;23.70;45.90
4209;DHT22;36320;48.860;2.380;2023-06-14T04:54:36;23.60;45.80
4209;DHT22;36320;48.860;2.380;2023-06-14T04:57:06;23.70;46.10
4209;DHT22;36320;48.860;2.380;2023-06-14T04:59:33;23.80;46.00
4209;DHT22;36320;48.860;2.380;2023-06-14T05:02:01;23.80;45.90
4209;DHT22;36320;48.860;2.380;2023-06-14T05:04:27;23.80;45.80
4209;DHT22;36320;48.860;2.380;2023-06-14T05:06:55;23.70;45.90
4209;DHT22;36320;48.860;2.380;2023-06-14T05:09:22;23.80;46.00
4209;DHT22;36320;48.860;2.380;2023-06-14T05:11:47;23.80;45.90
4209;DHT22;36320;48.860;2.380;2023-06-14T05:14:14;23.70;46.20
4209;DHT22;36320;48.860;2.380;2023-06-14T05:16:41;23.80;46.20
4209;DHT22;36320;48.860;2.380;2023-06-14T05:19:08;23.80;46.30
4209;DHT22;36320;48.860;2.380;2023-06-14T05:21:36;23.90;46.20
4209;DHT22;36320;48.860;2.380;2023-06-14T05:24:05;24.10;46.20
4209;DHT22;36320;48.860;2.380;2023-06-14T05:26:31;24.20;46.00
4209;DHT22;36320;48.860;2.380;2023-06-14T05:28:58;24.20;45.80
4209;DHT22;36320;48.860;2.380;2023-06-14T05:31:27;24.10;45.50
4209;DHT22;36320;48.860;2.380;2023-06-14T05:33:53;24.50;45.50
4209;DHT22;36320;48.860;2.380;2023-06-14T05:36:20;24.80;45.60
4209;DHT22;36320;48.860;2.380;2023-06-14T05:38:49;24.60;45.30
4209;DHT22;36320;48.860;2.380;2023-06-14T05:41:17;24.60;45.30
4209;DHT22;36320;48.860;2.380;2023-06-14T05:43:46;24.60;45.20
4209;DHT22;36320;48.860;2.380;2023-06-14T05:46:12;24.50;45.10
4209;DHT22;36320;48.860;2.380;2023-06-14T05:48:38;24.60;45.00
4209;DHT22;36320;48.860;2.380;2023-06-14T05:51:05;24.80;45.00
4209;DHT22;36320;48.860;2.380;2023-06-14T05:53:35;24.90;44.70
4209;DHT22;36320;48.860;2.380;2023-06-14T05:56:02;24.80;44.50
4209;DHT22;36320;48.860;2.380;2023-06-14T05:58:30;24.90;44.50
4209;DHT22;36320;48.860;2.380;2023-06-14T06:00:55;25.00;44.30
4209;DHT22;36320;48.860;2.380;2023-06-14T06:03:21;24.80;44.20
4209;DHT22;36320;48.860;2.380;2023-06-14T06:05:48;24.90;44.20
4209;DHT22;36320;48.860;2.380;2023-06-14T06:08:14;25.10;43.50
4209;DHT22;36320;48.860;2.380;2023-06-14T06:10:43;25.10;43.50
4209;DHT22;36320;48.860;2.380;2023-06-14T06:13:10;25.10;43.50
4209;DHT22;36320;48.860;2.380;2023-06-14T06:15:36;25.20;43.70
4209;DHT22;36320;48.860;2.380;2023-06-14T06:18:03;25.40;43.30
4209;DHT22;36320;48.860;2.380;2023-06-14T06:20:29;25.70;43.00
4209;DHT22;36320;48.860;2.380;2023-06-14T06:22:59;25.90;42.60
4209;DHT22;36320;48.860;2.380;2023-06-14T06:25:26;25.80;42.20
4209;DHT22;36320;48.860;2.380;2023-06-14T06:27:53;25.60;42.30
4209;DHT22;36320;48.860;2.380;2023-06-14T06:30:20;25.50;42.20
4209;DHT22;36320;48.860;2.380;2023-06-14T06:32:47;25.70;42.10
4209;DHT22;36320;48.860;2.380;2023-06-14T06:35:13;25.80;41.80
4209;DHT22;36320;48.860;2.380;2023-06-14T06:37:40;25.50;41.90
4209;DHT22;36320;48.860;2.380;2023-06-14T06:40:06;25.60;42.00
4209;DHT22;36320;48.860;2.380;2023-06-14T06:42:33;25.80;41.80
4209;DHT22;36320;48.860;2.380;2023-06-14T06:45:00;26.10;41.10
4209;DHT22;36320;48.860;2.380;2023-06-14T06:47:28;26.30;40.20
4209;DHT22;36320;48.860;2.380;2023-06-14T06:49:54;26.50;39.60
4209;DHT22;36320;48.860;2.380;2023-06-14T06:52:22;26.50;38.80
4209;DHT22;36320;48.860;2.380;2023-06-14T06:54:53;26.70;38.30
4209;DHT22;36320;48.860;2.380;2023-06-14T06:57:22;26.80;37.70
4209;DHT22;36320;48.860;2.380;2023-06-14T06:59:49;27.00;37.30
4209;DHT22;36320;48.860;2.380;2023-06-14T07:02:16;27.00;37.00
4209;DHT22;36320;48.860;2.380;2023-06-14T07:04:42;27.10;36.50
4209;DHT22;36320;48.860;2.380;2023-06-14T07:07:07;27.20;36.30
4209;DHT22;36320;48.860;2.380;2023-06-14T07:09:35;27.10;35.70
4209;DHT22;36320;48.860;2.380;2023-06-14T07:12:03;27.10;35.60
4209;DHT22;36320;48.860;2.380;2023-06-14T07:14:29;27.20;35.40
4209;DHT22;36320;48.860;2.380;2023-06-14T07:16:56;27.40;35.50
4209;DHT22;36320;48.860;2.380;2023-06-14T07:19:22;27.40;35.60
4209;DHT22;36320;48.860;2.380;2023-06-14T07:21:47;27.50;35.50
4209;DHT22;36320;48.860;2.380;2023-06-14T07:24:13;27.50;35.30
4209;DHT22;36320;48.860;2.380;2023-06-14T07:26:39;27.60;35.40
4209;DHT22;36320;48.860;2.380;2023-06-14T07:29:05;27.70;35.50
4209;DHT22;36320;48.860;2.380;2023-06-14T07:31:32;27.70;35.40
4209;DHT22;36320;48.860;2.380;2023-06-14T07:34:01;27.80;35.40
4209;DHT22;36320;48.860;2.380;2023-06-14T07:36:26;27.90;35.30
4209;DHT22;36320;48.860;2.380;2023-06-14T07:38:52;28.00;35.20
4209;DHT22;36320;48.860;2.380;2023-06-14T07:41:18;28.10;34.90
4209;DHT22;36320;48.860;2.380;2023-06-14T07:43:43;28.10;34.80
4209;DHT22;36320;48.860;2.380;2023-06-14T07:46:10;28.10;34.60
4209;DHT22;36320;48.860;2.380;2023-06-14T07:48:38;28.10;34.50
4209;DHT22;36320;48.860;2.380;2023-06-14T07:51:11;28.20;34.30
4209;DHT22;36320;48.860;2.380;2023-06-14T07:53:37;28.30;34.30
4209;DHT22;36320;48.860;2.380;2023-06-14T07:56:03;28.30;34.10
4209;DHT22;36320;48.860;2.380;2023-06-14T07:58:29;28.20;33.90
4209;DHT22;36320;48.860;2.380;2023-06-14T08:00:54;28.20;33.90
4209;DHT22;36320;48.860;2.380;2023-06-14T08:03:20;28.20;33.90
4209;DHT22;36320;48.860;2.380;2023-06-14T08:05:48;28.30;33.80
4209;DHT22;36320;48.860;2.380;2023-06-14T08:08:16;28.40;33.60
4209;DHT22;36320;48.860;2.380;2023-06-14T08:10:42;28.60;33.60
4209;DHT22;36320;48.860;2.380;2023-06-14T08:13:09;28.70;33.30
4209;DHT22;36320;48.860;2.380;2023-06-14T08:15:35;28.70;33.10
4209;DHT22;36320;48.860;2.380;2023-06-14T08:18:01;28.70;33.20
4209;DHT22;36320;48.860;2.380;2023-06-14T08:20:27;28.80;32.80
4209;DHT22;36320;48.860;2.380;2023-06-14T08:22:53;28.90;32.40
4209;DHT22;36320;48.860;2.380;2023-06-14T08:25:22;28.90;32.10
4209;DHT22;36320;48.860;2.380;2023-06-14T08:27:48;28.90;32.40
4209;DHT22;36320;48.860;2.380;2023-06-14T08:30:14;29.00;32.30
4209;DHT22;36320;48.860;2.380;2023-06-14T08:32:40;29.00;32.30
4209;DHT22;36320;48.860;2.380;2023-06-14T08:35:07;29.10;32.00
4209;DHT22;36320;48.860;2.380;2023-06-14T08:37:38;29.20;31.20
4209;DHT22;36320;48.860;2.380;2023-06-14T08:40:22;29.20;30.60
4209;DHT22;36320;48.860;2.380;2023-06-14T08:42:54;29.30;30.50
4209;DHT22;36320;48.860;2.380;2023-06-14T08:45:24;29.40;30.50
4209;DHT22;36320;48.860;2.380;2023-06-14T08:47:51;29.30;30.40
4209;DHT22;36320;48.860;2.380;2023-06-14T08:50:27;29.40;30.50
4209;DHT22;36320;48.860;2.380;2023-06-14T08:52:57;29.60;30.60
4209;DHT22;36320;48.860;2.380;2023-06-14T08:55:27;29.50;30.40
4209;DHT22;36320;48.860;2.380;2023-06-14T08:57:58;29.30;30.40
4209;DHT22;36320;48.860;2.380;2023-06-14T09:00:28;29.40;30.00
4209;DHT22;36320;48.860;2.380;2023-06-14T09:02:55;29.50;29.70
4209;DHT22;36320;48.860;2.380;2023-06-14T09:05:27;29.60;29.40
4209;DHT22;36320;48.860;2.380;2023-06-14T09:07:54;29.70;29.20
4209;DHT22;36320;48.860;2.380;2023-06-14T09:10:27;29.70;29.10
4209;DHT22;36320;48.860;2.380;2023-06-14T09:12:54;29.90;29.20
4209;DHT22;36320;48.860;2.380;2023-06-14T09:15:20;29.90;29.00
4209;DHT22;36320;48.860;2.380;2023-06-14T09:17:49;29.90;28.60
4209;DHT22;36320;48.860;2.380;2023-06-14T09:20:15;29.90;28.30
4209;DHT22;36320;48.860;2.380;2023-06-14T09:22:44;29.90;28.10
4209;DHT22;36320;48.860;2.380;2023-06-14T09:25:10;29.70;28.00
4209;DHT22;36320;48.860;2.380;2023-06-14T09:27:42;29.80;28.00
4209;DHT22;36320;48.860;2.380;2023-06-14T09:30:11;30.00;28.00
4209;DHT22;36320;48.860;2.380;2023-06-14T09:32:41;30.10;27.80
4209;DHT22;36320;48.860;2.380;2023-06-14T09:35:09;30.20;27.50
4209;DHT22;36320;48.860;2.380;2023-06-14T09:37:35;30.30;27.30
4209;DHT22;36320;48.860;2.380;2023-06-14T09:40:05;30.30;26.90
4209;DHT22;36320;48.860;2.380;2023-06-14T09:42:33;30.40;26.50
4209;DHT22;36320;48.860;2.380;2023-06-14T09:45:05;30.40;26.10
4209;DHT22;36320;48.860;2.380;2023-06-14T09:47:31;30.40;25.90
4209;DHT22;36320;48.860;2.380;2023-06-14T09:50:01;30.50;25.70
4209;DHT22;36320;48.860;2.380;2023-06-14T09:52:27;30.50;25.60
4209;DHT22;36320;48.860;2.380;2023-06-14T09:54:55;30.60;25.60
4209;DHT22;36320;48.860;2.380;2023-06-14T09:57:23;30.60;25.40
4209;DHT22;36320;48.860;2.380;2023-06-14T09:59:56;30.60;25.40
4209;DHT22;36320;48.860;2.380;2023-06-14T10:02:34;30.70;25.40
4209;DHT22;36320;48.860;2.380;2023-06-14T10:05:05;30.70;25.40
4209;DHT22;36320;48.860;2.380;2023-06-14T10:07:56;30.80;25.50
4209;DHT22;36320;48.860;2.380;2023-06-14T10:10:26;30.80;25.40
4209;DHT22;36320;48.860;2.380;2023-06-14T10:12:52;30.90;25.40
4209;DHT22;36320;48.860;2.380;2023-06-14T10:15:46;31.00;25.40
4209;DHT22;36320;48.860;2.380;2023-06-14T10:23:42;31.10;25.10
4209;DHT22;36320;48.860;2.380;2023-06-14T10:26:17;31.10;25.00
4209;DHT22;36320;48.860;2.380;2023-06-14T10:29:06;31.10;25.10
4209;DHT22;36320;48.860;2.380;2023-06-14T10:31:47;31.10;24.90
4209;DHT22;36320;48.860;2.380;2023-06-14T10:34:28;31.10;24.90
4209;DHT22;36320;48.860;2.380;2023-06-14T10:37:11;31.10;24.80
4209;DHT22;36320;48.860;2.380;2023-06-14T10:39:45;31.10;24.80
4209;DHT22;36320;48.860;2.380;2023-06-14T10:42:12;31.10;24.80
4209;DHT22;36320;48.860;2.380;2023-06-14T10:47:34;31.20;24.70
4209;DHT22;36320;48.860;2.380;2023-06-14T10:50:08;31.20;24.70
4209;DHT22;36320;48.860;2.380;2023-06-14T10:52:40;31.20;24.80
4209;DHT22;36320;48.860;2.380;2023-06-14T10:55:36;31.20;24.70
4209;DHT22;36320;48.860;2.380;2023-06-14T10:58:02;31.30;24.90
4209;DHT22;36320;48.860;2.380;2023-06-14T11:00:29;31.20;24.80
4209;DHT22;36320;48.860;2.380;2023-06-14T11:05:57;31.30;24.90
4209;DHT22;36320;48.860;2.380;2023-06-14T11:08:27;31.30;25.00
4209;DHT22;36320;48.860;2.380;2023-06-14T11:10:59;31.20;24.80
4209;DHT22;36320;48.860;2.380;2023-06-14T11:13:26;31.30;24.90
4209;DHT22;36320;48.860;2.380;2023-06-14T11:15:52;31.30;25.00
4209;DHT22;36320;48.860;2.380;2023-06-14T11:18:19;31.30;25.10
4209;DHT22;36320;48.860;2.380;2023-06-14T11:20:54;31.20;24.90
4209;DHT22;36320;48.860;2.380;2023-06-14T11:23:21;31.30;25.10
4209;DHT22;36320;48.860;2.380;2023-06-14T11:25:51;31.30;24.90
4209;DHT22;36320;48.860;2.380;2023-06-14T11:28:17;31.40;24.70
4209;DHT22;36320;48.860;2.380;2023-06-14T11:30:45;31.40;24.60
4209;DHT22;36320;48.860;2.380;2023-06-14T11:33:17;31.40;24.30
4209;DHT22;36320;48.860;2.380;2023-06-14T11:35:46;31.40;24.20
4209;DHT22;36320;48.860;2.380;2023-06-14T11:38:12;31.50;24.10
4209;DHT22;36320;48.860;2.380;2023-06-14T11:40:39;31.50;24.10
4209;DHT22;36320;48.860;2.380;2023-06-14T11:43:06;31.50;24.20
4209;DHT22;36320;48.860;2.380;2023-06-14T11:45:33;31.40;24.10
4209;DHT22;36320;48.860;2.380;2023-06-14T11:47:59;31.40;24.20
4209;DHT22;36320;48.860;2.380;2023-06-14T11:50:27;31.30;24.10
4209;DHT22;36320;48.860;2.380;2023-06-14T11:52:57;31.40;24.10
4209;DHT22;36320;48.860;2.380;2023-06-14T11:55:25;31.40;23.90
4209;DHT22;36320;48.860;2.380;2023-06-14T11:57:53;31.50;23.90
4209;DHT22;36320;48.860;2.380;2023-06-14T12:00:27;31.40;23.90
4209;DHT22;36320;48.860;2.380;2023-06-14T12:03:00;31.40;24.00
4209;DHT22;36320;48.860;2.380;2023-06-14T12:05:27;31.40;24.00
4209;DHT22;36320;48.860;2.380;2023-06-14T12:08:00;31.20;24.10
4209;DHT22;36320;48.860;2.380;2023-06-14T12:10:28;31.10;24.30
4209;DHT22;36320;48.860;2.380;2023-06-14T12:12:58;31.30;24.50
4209;DHT22;36320;48.860;2.380;2023-06-14T12:15:29;31.30;24.60
4209;DHT22;36320;48.860;2.380;2023-06-14T12:17:57;31.40;24.60
4209;DHT22;36320;48.860;2.380;2023-06-14T12:20:29;31.40;24.50
4209;DHT22;36320;48.860;2.380;2023-06-14T12:22:59;31.30;24.40
4209;DHT22;36320;48.860;2.380;2023-06-14T12:25:31;31.30;24.50
4209;DHT22;36320;48.860;2.380;2023-06-14T12:27:58;31.40;24.60
4209;DHT22;36320;48.860;2.380;2023-06-14T12:30:25;31.40;24.60
4209;DHT22;36320;48.860;2.380;2023-06-14T12:32:53;31.50;24.60
4209;DHT22;36320;48.860;2.380;2023-06-14T12:35:20;31.50;24.50
4209;DHT22;36320;48.860;2.380;2023-06-14T12:37:46;31.50;24.50
4209;DHT22;36320;48.860;2.380;2023-06-14T12:40:13;30.40;24.00
4209;DHT22;36320;48.860;2.380;2023-06-14T12:42:50;31.50;24.60
4209;DHT22;36320;48.860;2.380;2023-06-14T12:45:17;31.50;24.60
4209;DHT22;36320;48.860;2.380;2023-06-14T12:47:45;31.40;24.60
4209;DHT22;36320;48.860;2.380;2023-06-14T12:50:11;31.20;24.50
4209;DHT22;36320;48.860;2.380;2023-06-14T12:52:37;31.20;24.30
4209;DHT22;36320;48.860;2.380;2023-06-14T12:55:06;31.30;24.30
4209;DHT22;36320;48.860;2.380;2023-06-14T12:57:32;31.20;24.20
4209;DHT22;36320;48.860;2.380;2023-06-14T12:59:59;31.30;24.30
4209;DHT22;36320;48.860;2.380;2023-06-14T13:02:25;31.30;24.30
4209;DHT22;36320;48.860;2.380;2023-06-14T13:04:51;31.30;24.10
4209;DHT22;36320;48.860;2.380;2023-06-14T13:07:19;31.40;24.20
4209;DHT22;36320;48.860;2.380;2023-06-14T13:09:46;31.40;24.10
4209;DHT22;36320;48.860;2.380;2023-06-14T13:12:12;31.50;24.20
4209;DHT22;36320;48.860;2.380;2023-06-14T13:14:40;31.40;23.90
4209;DHT22;36320;48.860;2.380;2023-06-14T13:17:09;31.30;24.10
4209;DHT22;36320;48.860;2.380;2023-06-14T13:19:35;31.30;24.30
4209;DHT22;36320;48.860;2.380;2023-06-14T13:22:03;31.40;23.90
4209;DHT22;36320;48.860;2.380;2023-06-14T13:24:30;31.40;23.80
4209;DHT22;36320;48.860;2.380;2023-06-14T13:26:59;31.30;23.70
4209;DHT22;36320;48.860;2.380;2023-06-14T13:29:26;31.40;24.30
4209;DHT22;36320;48.860;2.380;2023-06-14T13:31:56;31.40;23.80
4209;DHT22;36320;48.860;2.380;2023-06-14T13:34:23;31.40;23.60
4209;DHT22;36320;48.860;2.380;2023-06-14T13:36:49;31.40;23.60
4209;DHT22;36320;48.860;2.380;2023-06-14T13:39:15;31.30;23.50
4209;DHT22;36320;48.860;2.380;2023-06-14T13:41:41;31.30;23.50
4209;DHT22;36320;48.860;2.380;2023-06-14T13:44:08;31.20;23.60
4209;DHT22;36320;48.860;2.380;2023-06-14T13:46:34;31.30;23.80
4209;DHT22;36320;48.860;2.380;2023-06-14T13:49:00;31.40;23.90
4209;DHT22;36320;48.860;2.380;2023-06-14T13:51:27;31.40;23.80
4209;DHT22;36320;48.860;2.380;2023-06-14T13:53:53;31.40;23.80
4209;DHT22;36320;48.860;2.380;2023-06-14T13:56:19;31.40;24.10
4209;DHT22;36320;48.860;2.380;2023-06-14T13:58:45;31.40;24.30
4209;DHT22;36320;48.860;2.380;2023-06-14T14:01:11;31.40;24.40
4209;DHT22;36320;48.860;2.380;2023-06-14T14:03:38;31.40;24.40
4209;DHT22;36320;48.860;2.380;2023-06-14T14:06:05;31.40;24.50
4209;DHT22;36320;48.860;2.380;2023-06-14T14:08:34;31.50;24.50
4209;DHT22;36320;48.860;2.380;2023-06-14T14:11:00;31.40;24.50
4209;DHT22;36320;48.860;2.380;2023-06-14T14:13:26;31.30;24.60
4209;DHT22;36320;48.860;2.380;2023-06-14T14:15:52;31.20;24.80
4209;DHT22;36320;48.860;2.380;2023-06-14T14:18:18;31.20;24.90
4209;DHT22;36320;48.860;2.380;2023-06-14T14:20:46;31.20;24.90
4209;DHT22;36320;48.860;2.380;2023-06-14T14:23:12;31.20;24.90
4209;DHT22;36320;48.860;2.380;2023-06-14T14:25:38;31.20;24.80
4209;DHT22;36320;48.860;2.380;2023-06-14T14:28:04;31.20;24.90
4209;DHT22;36320;48.860;2.380;2023-06-14T14:30:29;31.30;25.00
4209;DHT22;36320;48.860;2.380;2023-06-14T14:32:55;31.40;25.00
4209;DHT22;36320;48.860;2.380;2023-06-14T14:35:21;31.40;25.00
4209;DHT22;36320;48.860;2.380;2023-06-14T14:37:49;31.50;25.00
4209;DHT22;36320;48.860;2.380;2023-06-14T14:40:15;31.50;25.10
4209;DHT22;36320;48.860;2.380;2023-06-14T14:42:41;31.60;25.10
4209;DHT22;36320;48.860;2.380;2023-06-14T14:45:07;31.70;25.10
4209;DHT22;36320;48.860;2.380;2023-06-14T14:47:33;31.80;25.20
4209;DHT22;36320;48.860;2.380;2023-06-14T14:49:58;31.90;25.20
4209;DHT22;36320;48.860;2.380;2023-06-14T14:52:25;31.90;25.20
4209;DHT22;36320;48.860;2.380;2023-06-14T14:54:52;32.00;25.10
4209;DHT22;36320;48.860;2.380;2023-06-14T14:57:21;32.00;25.00
4209;DHT22;36320;48.860;2.380;2023-06-14T14:59:47;32.00;25.00
4209;DHT22;36320;48.860;2.380;2023-06-14T15:02:13;31.90;24.80
4209;DHT22;36320;48.860;2.380;2023-06-14T15:04:38;31.90;24.50
4209;DHT22;36320;48.860;2.380;2023-06-14T15:07:05;31.80;24.40
4209;DHT22;36320;48.860;2.380;2023-06-14T15:09:31;31.80;24.20
4209;DHT22;36320;48.860;2.380;2023-06-14T15:11:57;31.80;24.00
4209;DHT22;36320;48.860;2.380;2023-06-14T15:14:24;31.90;23.80
4209;DHT22;36320;48.860;2.380;2023-06-14T15:16:50;31.90;23.90
4209;DHT22;36320;48.860;2.380;2023-06-14T15:19:19;32.00;23.90
4209;DHT22;36320;48.860;2.380;2023-06-14T15:21:46;32.20;24.30
4209;DHT22;36320;48.860;2.380;2023-06-14T15:24:13;32.60;24.60
4209;DHT22;36320;48.860;2.380;2023-06-14T15:26:42;33.70;24.60
4209;DHT22;36320;48.860;2.380;2023-06-14T15:29:08;34.90;23.90
4209;DHT22;36320;48.860;2.380;2023-06-14T15:31:34;35.90;23.30
4209;DHT22;36320;48.860;2.380;2023-06-14T15:34:03;36.80;22.70
4209;DHT22;36320;48.860;2.380;2023-06-14T15:36:28;37.70;22.30
4209;DHT22;36320;48.860;2.380;2023-06-14T15:38:54;38.30;21.50
4209;DHT22;36320;48.860;2.380;2023-06-14T15:41:21;38.80;20.90
4209;DHT22;36320;48.860;2.380;2023-06-14T15:43:47;39.00;20.50
4209;DHT22;36320;48.860;2.380;2023-06-14T15:46:13;39.30;19.90
4209;DHT22;36320;48.860;2.380;2023-06-14T15:48:42;39.70;19.90
4209;DHT22;36320;48.860;2.380;2023-06-14T15:51:08;40.40;19.50
4209;DHT22;36320;48.860;2.380;2023-06-14T15:53:33;41.40;19.20
4209;DHT22;36320;48.860;2.380;2023-06-14T15:56:00;42.00;18.70
4209;DHT22;36320;48.860;2.380;2023-06-14T15:58:26;42.70;18.60
4209;DHT22;36320;48.860;2.380;2023-06-14T16:00:51;43.60;18.30